createdAt,value
2018-06-25T20:14:31.544Z,59.30
2018-06-25T20:19:11.401Z,59.60
2018-06-25T20:21:39.357Z,59.90
2018-06-25T20:24:07.342Z,60.20
2018-06-25T20:26:35.257Z,60.50
2018-06-25T20:29:03.394Z,60.30
2018-06-25T20:31:31.220Z,60.30
2018-06-25T20:36:26.804Z,60.80
2018-06-25T20:38:54.635Z,61.30
2018-06-25T20:41:22.539Z,61.80
2018-06-25T20:43:51.058Z,61.60
2018-06-25T20:46:19.158Z,61.60
2018-06-25T20:48:47.027Z,61.60
2018-06-25T20:51:14.929Z,61.50
2018-06-25T20:53:42.835Z,61.30
2018-06-25T20:56:10.756Z,61.80
2018-06-25T20:58:38.592Z,61.70
2018-06-25T21:01:06.449Z,62.10
2018-06-25T21:03:34.385Z,62.80
2018-06-25T21:06:02.341Z,63.10
2018-06-25T21:08:30.168Z,63.20
2018-06-25T21:10:58.017Z,63.40
2018-06-25T21:13:25.856Z,63.60
2018-06-25T21:15:53.728Z,63.80
2018-06-25T21:18:21.619Z,64.10
2018-06-25T21:20:49.488Z,64.00
2018-06-25T21:23:17.331Z,64.40
2018-06-25T21:25:45.185Z,64.30
2018-06-25T21:28:13.104Z,64.20
2018-06-25T21:30:40.999Z,64.50
2018-06-25T21:33:09.009Z,65.00
2018-06-25T21:35:36.920Z,64.50
2018-06-25T21:38:04.890Z,64.40
2018-06-25T21:40:32.768Z,64.40
2018-06-25T21:43:00.651Z,64.30
2018-06-25T21:45:28.476Z,64.40
2018-06-25T21:50:24.116Z,64.30
2018-06-25T21:52:51.921Z,64.50
2018-06-25T21:55:19.857Z,65.40
2018-06-25T21:57:47.719Z,66.50
2018-06-25T22:00:15.576Z,66.30
2018-06-25T22:02:43.396Z,66.10
2018-06-25T22:05:11.313Z,66.20
2018-06-25T22:07:39.228Z,66.80
2018-06-25T22:10:07.597Z,67.20
2018-06-25T22:12:35.544Z,67.80
2018-06-25T22:15:03.564Z,68.20
2018-06-25T22:17:31.524Z,68.10
2018-06-25T22:19:59.292Z,68.20
2018-06-25T22:22:27.178Z,67.60
2018-06-25T22:24:55.042Z,67.60
2018-06-25T22:27:22.968Z,68.20
2018-06-25T22:29:50.860Z,68.40
2018-06-25T22:32:18.896Z,68.50
2018-06-25T22:34:46.745Z,68.50
2018-06-25T22:37:14.659Z,69.20
2018-06-25T22:39:42.441Z,69.50
2018-06-25T22:42:10.343Z,69.70
2018-06-25T22:44:38.235Z,70.00
2018-06-25T22:47:06.120Z,70.30
2018-06-25T22:49:34.017Z,70.60
2018-06-25T22:52:01.855Z,70.70
2018-06-25T22:54:29.703Z,71.00
2018-06-25T22:56:57.568Z,70.70
2018-06-25T22:59:25.464Z,70.80
2018-06-25T23:01:53.352Z,70.60
2018-06-25T23:04:21.149Z,71.00
2018-06-25T23:06:48.988Z,71.50
2018-06-25T23:09:16.786Z,71.50
2018-06-25T23:11:44.612Z,71.70
2018-06-25T23:14:12.396Z,71.70
2018-06-25T23:16:40.244Z,72.10
2018-06-25T23:19:08.112Z,72.10
2018-06-25T23:21:35.987Z,72.10
2018-06-25T23:24:03.848Z,72.30
2018-06-25T23:26:31.742Z,72.10
2018-06-25T23:28:59.576Z,72.10
2018-06-25T23:31:27.473Z,72.20
2018-06-25T23:33:55.348Z,72.10
2018-06-25T23:36:23.172Z,71.70
2018-06-25T23:38:50.991Z,72.00
2018-06-25T23:41:18.835Z,71.90
2018-06-25T23:43:46.696Z,71.80
2018-06-25T23:46:14.572Z,71.90
2018-06-25T23:48:42.633Z,72.10
2018-06-25T23:51:10.503Z,72.20
2018-06-25T23:53:38.374Z,72.20
2018-06-25T23:56:06.211Z,72.90
2018-06-25T23:58:34.000Z,72.60
